Time;durP1;ratioP1;P1;durP2;ratioP2;P2;SDS_P1;SDS_P2;PMS_P1;PMS_P2;Temp;Humidity;BMP_temperature;BMP_pressure;BME280_temperature;BME280_humidity;BME280_pressure;Samples;Min_cycle;Max_cycle;Signal;HPM_P1;HPM_P2
2022/06/26 00:02:20;;;;;;;5.25;3.22;;;;;;;;;;4960928;28;20036;-80
2022/06/26 00:04:46;;;;;;;4.68;3.13;;;;;;;;;;4994769;28;20037;-79
2022/06/26 00:07:11;;;;;;;3.60;3.25;;;;;;;;;;4976937;28;20112;-80
2022/06/26 00:09:37;;;;;;;5.63;3.42;;;;;;;;;;4994633;28;20118;-80
2022/06/26 00:12:03;;;;;;;3.72;3.05;;;;;;;;;;4994729;28;20035;-80
2022/06/26 00:14:28;;;;;;;5.65;3.78;;;;;;;;;;4976980;28;20053;-80
2022/06/26 00:16:53;;;;;;;3.78;3.00;;;;;;;;;;4976860;28;20026;-80
2022/06/26 00:19:19;;;;;;;3.85;2.60;;;;;;;;;;4994051;28;20084;-81
2022/06/26 00:21:44;;;;;;;4.57;3.05;;;;;;;;;;4994226;28;20102;-81
2022/06/26 00:24:10;;;;;;;3.13;2.80;;;;;;;;;;4993995;28;20026;-80
2022/06/26 00:26:35;;;;;;;4.38;3.00;;;;;;;;;;4976721;28;20061;-80
2022/06/26 00:29:01;;;;;;;3.78;3.15;;;;;;;;;;4976362;28;20085;-80
2022/06/26 00:31:26;;;;;;;4.25;3.35;;;;;;;;;;4993807;28;20042;-80
2022/06/26 00:33:52;;;;;;;4.43;2.95;;;;;;;;;;4976764;28;20144;-80
2022/06/26 00:36:17;;;;;;;3.83;3.10;;;;;;;;;;4993868;28;20030;-80
2022/06/26 00:38:42;;;;;;;5.47;3.22;;;;;;;;;;4993704;28;20471;-80
2022/06/26 00:41:08;;;;;;;4.47;3.38;;;;;;;;;;4993611;28;20034;-80
2022/06/26 00:43:33;;;;;;;4.65;3.20;;;;;;;;;;4993621;28;20130;-80
2022/06/26 00:45:59;;;;;;;3.33;2.63;;;;;;;;;;4976123;28;20031;-80
2022/06/26 00:48:24;;;;;;;4.60;3.10;;;;;;;;;;4960037;28;20180;-80
2022/06/26 00:50:51;;;;;;;3.53;3.00;;;;;;;;;;4994100;28;20022;-80
2022/06/26 00:53:16;;;;;;;5.65;2.80;;;;;;;;;;4976557;28;20394;-80
2022/06/26 00:55:42;;;;;;;4.72;3.00;;;;;;;;;;4976052;28;20030;-80
2022/06/26 00:58:07;;;;;;;2.63;2.40;;;;;;;;;;4993482;28;20556;-80
2022/06/26 01:00:33;;;;;;;4.30;2.85;;;;;;;;;;4993584;28;20041;-80
2022/06/26 01:02:58;;;;;;;3.95;2.58;;;;;;;;;;4976289;28;20129;-80
2022/06/26 01:05:23;;;;;;;3.35;2.22;;;;;;;;;;4993355;28;20033;-80
2022/06/26 01:07:49;;;;;;;3.72;2.53;;;;;;;;;;4975705;28;20483;-80
2022/06/26 01:10:15;;;;;;;3.28;2.00;;;;;;;;;;4993625;28;20066;-80
2022/06/26 01:12:40;;;;;;;3.25;2.28;;;;;;;;;;4993172;28;20030;-80
2022/06/26 01:15:07;;;;;;;2.10;1.80;;;;;;;;;;4959629;28;20037;-80
2022/06/26 01:17:33;;;;;;;3.00;2.00;;;;;;;;;;4975706;28;20105;-80
2022/06/26 01:19:58;;;;;;;2.70;1.67;;;;;;;;;;4993430;28;20430;-80
2022/06/26 01:22:28;;;;;;;3.40;2.13;;;;;;;;;;4959437;28;20360;-80
2022/06/26 01:24:54;;;;;;;2.78;2.10;;;;;;;;;;4960019;28;20092;-80
2022/06/26 01:27:19;;;;;;;2.67;2.22;;;;;;;;;;4959366;28;20042;-80
2022/06/26 01:29:45;;;;;;;2.35;1.90;;;;;;;;;;4975244;28;20089;-80
2022/06/26 01:32:10;;;;;;;2.45;1.58;;;;;;;;;;4959533;28;20046;-79
2022/06/26 01:34:35;;;;;;;1.60;1.50;;;;;;;;;;4993272;28;20023;-80
2022/06/26 01:37:01;;;;;;;2.10;1.90;;;;;;;;;;4975702;28;20057;-79
2022/06/26 01:39:26;;;;;;;3.08;2.10;;;;;;;;;;4993400;28;20394;-80
2022/06/26 01:41:52;;;;;;;3.10;1.50;;;;;;;;;;4975864;28;20081;-80
2022/06/26 01:44:17;;;;;;;1.85;1.40;;;;;;;;;;4993112;28;20378;-80
2022/06/26 01:46:43;;;;;;;1.50;1.40;;;;;;;;;;4992876;28;20029;-80
2022/06/26 01:49:08;;;;;;;1.70;1.60;;;;;;;;;;4992726;28;20038;-80
2022/06/26 01:51:34;;;;;;;1.77;1.48;;;;;;;;;;4959427;28;20514;-80
2022/06/26 01:53:59;;;;;;;2.22;1.80;;;;;;;;;;4962598;28;20037;-80
2022/06/26 01:56:25;;;;;;;1.40;1.30;;;;;;;;;;4996915;28;20110;-80
2022/06/26 01:58:51;;;;;;;1.20;1.10;;;;;;;;;;4963119;28;20077;-80
2022/06/26 02:01:16;;;;;;;2.00;1.33;;;;;;;;;;4979326;28;20038;-80
2022/06/26 02:03:42;;;;;;;1.45;1.35;;;;;;;;;;4979432;28;20034;-81
2022/06/26 02:06:07;;;;;;;1.40;1.30;;;;;;;;;;4996403;28;20050;-80
2022/06/26 02:08:33;;;;;;;2.65;1.52;;;;;;;;;;4978718;28;20039;-80
2022/06/26 02:13:43;;;;;;;;;;;;;;;;;;4997301;28;20044;-80
2022/06/26 02:16:16;;;;;;;2.38;1.40;;;;;;;;;;4996606;28;19920;-80
2022/06/26 02:18:43;;;;;;;2.08;1.50;;;;;;;;;;4979056;28;20049;-80
2022/06/26 02:21:11;;;;;;;1.45;1.33;;;;;;;;;;4996721;28;20035;-81
2022/06/26 02:23:38;;;;;;;1.20;1.10;;;;;;;;;;4979005;28;20129;-82
2022/06/26 02:26:04;;;;;;;1.65;1.33;;;;;;;;;;4979108;28;20117;-81
2022/06/26 02:28:30;;;;;;;3.10;1.60;;;;;;;;;;4978849;28;20134;-81
2022/06/26 02:30:56;;;;;;;1.75;1.30;;;;;;;;;;4962592;28;20395;-81
2022/06/26 02:33:22;;;;;;;1.58;1.10;;;;;;;;;;4962483;28;20041;-82
2022/06/26 02:35:48;;;;;;;1.55;1.35;;;;;;;;;;4996360;28;20592;-81
2022/06/26 02:38:15;;;;;;;1.30;1.20;;;;;;;;;;4996060;28;20109;-82
2022/06/26 02:40:41;;;;;;;1.20;1.10;;;;;;;;;;4996734;28;20037;-81
2022/06/26 02:43:06;;;;;;;1.58;1.40;;;;;;;;;;4978602;28;20053;-81
2022/06/26 02:45:31;;;;;;;1.23;1.13;;;;;;;;;;4978454;28;20185;-81
2022/06/26 02:47:57;;;;;;;1.30;1.20;;;;;;;;;;4978369;28;20402;-81
2022/06/26 02:50:22;;;;;;;1.98;1.85;;;;;;;;;;4962243;28;20041;-81
2022/06/26 02:52:47;;;;;;;5.43;1.90;;;;;;;;;;4978371;28;20030;-80
2022/06/26 02:55:13;;;;;;;3.33;2.13;;;;;;;;;;4978196;28;20030;-81
2022/06/26 02:57:39;;;;;;;4.05;2.05;;;;;;;;;;4978745;28;20026;-79
2022/06/26 03:00:06;;;;;;;4.43;2.42;;;;;;;;;;4962126;28;20035;-81
2022/06/26 03:02:32;;;;;;;4.20;2.33;;;;;;;;;;4978288;28;20042;-81
2022/06/26 03:04:57;;;;;;;2.90;1.83;;;;;;;;;;4995789;28;20076;-80
2022/06/26 03:07:22;;;;;;;2.83;2.00;;;;;;;;;;4995509;28;20030;-80
2022/06/26 03:09:48;;;;;;;1.65;1.55;;;;;;;;;;4978076;28;20037;-80
2022/06/26 03:12:14;;;;;;;1.73;1.63;;;;;;;;;;4961864;28;20029;-81
2022/06/26 03:14:39;;;;;;;1.70;1.60;;;;;;;;;;4995623;28;20108;-82
2022/06/26 03:17:05;;;;;;;2.40;1.40;;;;;;;;;;4977797;28;20023;-81
2022/06/26 03:19:30;;;;;;;1.83;1.70;;;;;;;;;;4961730;28;20165;-81
2022/06/26 03:21:56;;;;;;;2.08;1.88;;;;;;;;;;4977943;28;20057;-81
2022/06/26 03:24:21;;;;;;;3.35;2.72;;;;;;;;;;4995207;28;20344;-79
2022/06/26 03:26:47;;;;;;;2.35;2.15;;;;;;;;;;4977825;28;20070;-80
2022/06/26 03:29:12;;;;;;;3.20;1.75;;;;;;;;;;4977517;28;20411;-80
2022/06/26 03:31:38;;;;;;;3.85;2.53;;;;;;;;;;4977558;28;20038;-80
2022/06/26 03:34:04;;;;;;;2.70;1.70;;;;;;;;;;4978457;28;20034;-80
2022/06/26 03:36:30;;;;;;;3.05;1.90;;;;;;;;;;4977656;28;20026;-80
2022/06/26 03:38:56;;;;;;;2.17;1.50;;;;;;;;;;4977745;28;20033;-79
2022/06/26 03:41:22;;;;;;;2.55;1.70;;;;;;;;;;4978280;28;20169;-80
2022/06/26 03:43:48;;;;;;;2.33;1.60;;;;;;;;;;4977787;28;20073;-80
2022/06/26 03:46:14;;;;;;;1.42;1.33;;;;;;;;;;4961532;28;20031;-79
2022/06/26 03:48:40;;;;;;;2.38;2.15;;;;;;;;;;4995135;28;20033;-80
2022/06/26 03:51:06;;;;;;;2.45;2.10;;;;;;;;;;4977831;28;20117;-80
2022/06/26 03:53:32;;;;;;;2.05;1.73;;;;;;;;;;4981467;28;20062;-79
2022/06/26 03:55:57;;;;;;;2.30;1.60;;;;;;;;;;4969971;28;20031;-80
2022/06/26 03:58:23;;;;;;;2.95;1.58;;;;;;;;;;4966858;28;20030;-80
2022/06/26 04:00:49;;;;;;;2.05;1.48;;;;;;;;;;4978757;28;20102;-80
2022/06/26 04:03:15;;;;;;;1.52;1.42;;;;;;;;;;4994739;28;20204;-80
2022/06/26 04:05:41;;;;;;;2.45;1.52;;;;;;;;;;4961275;28;20479;-80
2022/06/26 04:08:06;;;;;;;2.38;1.70;;;;;;;;;;4978740;28;20039;-81
2022/06/26 04:10:41;;;;;;;3.15;2.25;;;;;;;;;;4985140;28;20038;-80
2022/06/26 04:13:09;;;;;;;3.70;2.28;;;;;;;;;;4966701;28;20487;-81
2022/06/26 04:15:36;;;;;;;2.60;1.50;;;;;;;;;;4959942;28;20129;-80
2022/06/26 04:18:02;;;;;;;4.03;1.92;;;;;;;;;;4977039;28;20081;-81
2022/06/26 04:20:28;;;;;;;2.83;1.75;;;;;;;;;;4977016;28;20038;-81
2022/06/26 04:23:12;;;;;;;2.38;1.92;;;;;;;;;;4976509;28;20397;-80
2022/06/26 04:25:38;;;;;;;2.75;1.75;;;;;;;;;;4980650;28;20038;-81
2022/06/26 04:28:05;;;;;;;4.65;1.83;;;;;;;;;;4994062;28;20127;-81
2022/06/26 04:30:31;;;;;;;2.58;1.83;;;;;;;;;;4964764;28;20497;-81
2022/06/26 04:32:57;;;;;;;2.22;1.90;;;;;;;;;;4977938;28;20058;-80
2022/06/26 04:35:22;;;;;;;2.63;1.95;;;;;;;;;;4977851;28;20034;-81
2022/06/26 04:37:47;;;;;;;3.05;1.80;;;;;;;;;;4995178;28;20018;-80
2022/06/26 04:40:14;;;;;;;2.90;1.90;;;;;;;;;;4977538;28;20034;-80
2022/06/26 04:42:41;;;;;;;2.17;1.80;;;;;;;;;;4977646;28;20108;-80
2022/06/26 04:45:08;;;;;;;3.47;2.53;;;;;;;;;;4977649;28;20481;-79
2022/06/26 04:47:33;;;;;;;3.20;2.17;;;;;;;;;;4977302;28;20538;-81
2022/06/26 04:49:59;;;;;;;2.00;1.88;;;;;;;;;;4995104;28;20030;-80
2022/06/26 04:52:24;;;;;;;2.30;1.90;;;;;;;;;;4995003;28;20034;-81
2022/06/26 04:54:50;;;;;;;3.35;2.15;;;;;;;;;;4994635;28;20430;-81
2022/06/26 04:57:16;;;;;;;2.47;1.90;;;;;;;;;;4977697;28;20041;-81
2022/06/26 04:59:43;;;;;;;3.20;2.05;;;;;;;;;;4961058;28;20041;-80
2022/06/26 05:02:09;;;;;;;1.90;1.70;;;;;;;;;;4977718;28;20033;-80
2022/06/26 05:04:34;;;;;;;4.22;2.08;;;;;;;;;;4978337;28;20022;-80
2022/06/26 05:07:00;;;;;;;2.10;1.90;;;;;;;;;;4977577;28;20041;-80
2022/06/26 05:09:25;;;;;;;2.67;2.13;;;;;;;;;;4978149;28;20027;-80
2022/06/26 05:11:51;;;;;;;2.40;2.13;;;;;;;;;;4996067;28;20030;-80
2022/06/26 05:14:17;;;;;;;3.20;2.22;;;;;;;;;;4979573;28;20030;-80
2022/06/26 05:16:43;;;;;;;2.00;1.75;;;;;;;;;;4996056;28;20026;-80
2022/06/26 05:19:08;;;;;;;3.97;2.00;;;;;;;;;;4977626;28;20030;-80
2022/06/26 05:21:34;;;;;;;2.20;2.00;;;;;;;;;;4961942;28;20034;-80
2022/06/26 05:23:59;;;;;;;2.45;1.88;;;;;;;;;;4978122;28;20042;-80
2022/06/26 05:26:25;;;;;;;4.20;1.90;;;;;;;;;;4978338;28;20031;-80
2022/06/26 05:28:50;;;;;;;3.00;2.03;;;;;;;;;;4975242;28;20102;-80
2022/06/26 05:31:16;;;;;;;2.30;2.00;;;;;;;;;;4975914;28;20034;-80
2022/06/26 05:33:42;;;;;;;2.97;2.47;;;;;;;;;;4976738;28;20148;-80
2022/06/26 05:36:07;;;;;;;2.88;2.00;;;;;;;;;;4976595;28;20019;-79
2022/06/26 05:38:37;;;;;;;3.13;2.00;;;;;;;;;;4977567;28;20023;-79
2022/06/26 05:41:03;;;;;;;3.63;2.00;;;;;;;;;;4975673;28;20034;-80
2022/06/26 05:43:28;;;;;;;3.72;2.97;;;;;;;;;;4974564;28;20380;-79
2022/06/26 05:45:54;;;;;;;3.90;2.20;;;;;;;;;;4975311;28;20023;-79
2022/06/26 05:48:20;;;;;;;2.47;2.10;;;;;;;;;;4975129;28;20039;-79
2022/06/26 05:50:45;;;;;;;4.50;2.33;;;;;;;;;;4975484;28;20371;-79
2022/06/26 05:53:11;;;;;;;2.42;1.77;;;;;;;;;;4977191;28;20118;-82
2022/06/26 05:55:38;;;;;;;3.67;2.17;;;;;;;;;;4974898;28;20042;-80
2022/06/26 05:58:05;;;;;;;4.47;2.17;;;;;;;;;;4958712;28;20035;-81
2022/06/26 06:00:31;;;;;;;2.90;1.95;;;;;;;;;;4974957;28;20023;-80
2022/06/26 06:02:56;;;;;;;2.60;2.10;;;;;;;;;;4977855;28;20047;-82
2022/06/26 06:05:21;;;;;;;3.20;2.30;;;;;;;;;;4974241;28;20035;-80
2022/06/26 06:07:47;;;;;;;3.72;2.10;;;;;;;;;;4973529;28;20050;-80
2022/06/26 06:10:12;;;;;;;3.05;2.40;;;;;;;;;;4973247;28;20023;-80
2022/06/26 06:12:38;;;;;;;5.55;2.17;;;;;;;;;;4973627;28;20038;-80
2022/06/26 06:15:03;;;;;;;3.45;2.25;;;;;;;;;;4973476;28;20054;-80
2022/06/26 06:17:40;;;;;;;2.75;2.28;;;;;;;;;;4973199;28;20035;-80
2022/06/26 06:20:11;;;;;;;4.80;2.33;;;;;;;;;;4974995;28;20030;-80
2022/06/26 06:22:42;;;;;;;3.63;2.25;;;;;;;;;;4973463;28;20130;-82
2022/06/26 06:25:08;;;;;;;3.40;2.75;;;;;;;;;;4973708;28;20026;-84
2022/06/26 06:27:34;;;;;;;3.42;2.42;;;;;;;;;;4973890;28;20034;-82
2022/06/26 06:29:59;;;;;;;6.00;2.88;;;;;;;;;;4976440;28;20495;-82
2022/06/26 06:32:26;;;;;;;5.63;2.22;;;;;;;;;;4976351;28;20034;-83
2022/06/26 06:34:51;;;;;;;2.75;2.25;;;;;;;;;;4993941;28;20034;-82
2022/06/26 06:37:16;;;;;;;3.45;2.80;;;;;;;;;;4976394;28;20030;-83
2022/06/26 06:39:42;;;;;;;8.27;3.08;;;;;;;;;;4962691;28;20475;-81
2022/06/26 06:42:08;;;;;;;14.55;3.22;;;;;;;;;;4963817;28;20124;-81
2022/06/26 06:44:33;;;;;;;6.40;3.40;;;;;;;;;;4997355;28;20034;-81
2022/06/26 06:46:59;;;;;;;4.68;3.25;;;;;;;;;;4979979;28;20438;-81
2022/06/26 06:49:25;;;;;;;3.60;2.90;;;;;;;;;;4963561;28;20113;-81
2022/06/26 06:51:50;;;;;;;8.38;3.08;;;;;;;;;;4997474;28;20113;-82
2022/06/26 06:54:16;;;;;;;5.28;3.10;;;;;;;;;;4997021;28;20034;-81
2022/06/26 06:56:41;;;;;;;4.07;2.60;;;;;;;;;;4997180;28;20065;-81
2022/06/26 06:59:07;;;;;;;3.80;2.47;;;;;;;;;;4997017;28;20058;-83
2022/06/26 07:01:32;;;;;;;4.80;2.50;;;;;;;;;;4979737;28;20038;-82
2022/06/26 07:03:57;;;;;;;5.43;2.72;;;;;;;;;;4947501;28;20022;-83
2022/06/26 07:06:23;;;;;;;3.95;2.13;;;;;;;;;;4979277;28;20502;-83
2022/06/26 07:08:48;;;;;;;4.65;2.38;;;;;;;;;;4964092;28;20096;-83
2022/06/26 07:11:14;;;;;;;2.97;2.20;;;;;;;;;;4964236;28;20034;-88
2022/06/26 07:13:39;;;;;;;3.25;2.00;;;;;;;;;;4980076;28;20027;-86
2022/06/26 07:16:05;;;;;;;3.72;1.92;;;;;;;;;;4977926;28;20030;-86
2022/06/26 07:18:30;;;;;;;7.25;2.33;;;;;;;;;;4978650;28;20475;-85
2022/06/26 07:20:55;;;;;;;6.75;1.92;;;;;;;;;;4995732;28;20096;-85
2022/06/26 07:23:21;;;;;;;11.40;2.10;;;;;;;;;;4995857;28;20113;-85
2022/06/26 07:25:46;;;;;;;4.13;1.98;;;;;;;;;;4978299;28;20044;-86
2022/06/26 07:28:12;;;;;;;7.63;2.20;;;;;;;;;;4978016;28;20057;-85
2022/06/26 07:30:38;;;;;;;3.10;1.90;;;;;;;;;;4961907;28;20026;-83
2022/06/26 07:34:12;;;;;;;6.90;2.25;;;;;;;;;;4995473;28;20070;-83
2022/06/26 07:35:50;;;;;;;5.47;2.20;;;;;;;;;;4981211;28;20049;-82
2022/06/26 07:38:16;;;;;;;13.50;2.22;;;;;;;;;;4961872;28;20065;-83
2022/06/26 07:40:41;;;;;;;10.23;2.03;;;;;;;;;;4995566;28;20052;-82
2022/06/26 07:43:06;;;;;;;14.23;2.13;;;;;;;;;;4977975;28;20121;-81
2022/06/26 07:45:32;;;;;;;4.85;2.17;;;;;;;;;;4961570;28;20037;-82
2022/06/26 07:47:57;;;;;;;6.53;1.88;;;;;;;;;;4995230;28;20034;-82
2022/06/26 07:50:22;;;;;;;5.25;2.40;;;;;;;;;;4945438;28;20038;-85
2022/06/26 07:52:48;;;;;;;3.17;2.08;;;;;;;;;;4995397;28;20036;-82
2022/06/26 07:55:16;;;;;;;3.95;2.33;;;;;;;;;;4977717;28;20479;-82
2022/06/26 07:57:41;;;;;;;5.95;2.35;;;;;;;;;;4995155;28;20030;-83
2022/06/26 08:00:08;;;;;;;8.48;2.50;;;;;;;;;;4977551;28;20121;-84
2022/06/26 08:02:33;;;;;;;10.07;2.92;;;;;;;;;;4977651;28;20157;-84
2022/06/26 08:04:58;;;;;;;4.05;2.67;;;;;;;;;;4995070;28;20117;-83
2022/06/26 08:07:24;;;;;;;4.38;2.35;;;;;;;;;;4995101;28;20027;-83
2022/06/26 08:09:49;;;;;;;3.72;2.50;;;;;;;;;;4994818;28;20026;-79
2022/06/26 08:12:15;;;;;;;4.72;2.33;;;;;;;;;;4994734;28;20164;-80
2022/06/26 08:14:40;;;;;;;5.55;2.28;;;;;;;;;;4994610;28;20467;-80
2022/06/26 08:17:05;;;;;;;2.28;1.95;;;;;;;;;;4961321;28;20320;-80
2022/06/26 08:19:31;;;;;;;8.85;2.38;;;;;;;;;;4994648;28;20041;-80
2022/06/26 08:22:02;;;;;;;5.22;2.33;;;;;;;;;;4977251;28;20030;-79
2022/06/26 08:24:29;;;;;;;5.50;2.05;;;;;;;;;;4978127;28;20054;-80
2022/06/26 08:26:54;;;;;;;6.13;2.30;;;;;;;;;;4994306;28;20121;-80
2022/06/26 08:29:20;;;;;;;2.90;2.08;;;;;;;;;;4994464;28;20138;-79
2022/06/26 08:31:45;;;;;;;5.78;2.50;;;;;;;;;;4960897;28;20099;-79
2022/06/26 08:34:11;;;;;;;4.95;2.38;;;;;;;;;;4994621;28;20431;-80
2022/06/26 08:36:38;;;;;;;5.13;2.22;;;;;;;;;;4977082;28;20026;-80
2022/06/26 08:39:04;;;;;;;4.18;2.20;;;;;;;;;;4976784;28;20030;-78
2022/06/26 08:41:30;;;;;;;6.10;2.30;;;;;;;;;;4997067;28;20101;-79
2022/06/26 08:44:00;;;;;;;3.65;1.83;;;;;;;;;;4973353;28;20419;-80
2022/06/26 08:46:27;;;;;;;2.20;1.90;;;;;;;;;;4978153;28;20026;-79
2022/06/26 08:48:53;;;;;;;6.90;2.22;;;;;;;;;;4960486;28;20380;-80
2022/06/26 08:51:19;;;;;;;4.60;2.15;;;;;;;;;;4960038;28;20367;-82
2022/06/26 08:53:45;;;;;;;8.07;2.25;;;;;;;;;;4976684;28;20089;-80
2022/06/26 08:56:10;;;;;;;6.68;2.03;;;;;;;;;;4994079;28;20023;-81
2022/06/26 08:58:36;;;;;;;6.15;2.22;;;;;;;;;;4976710;28;20402;-81
2022/06/26 09:01:03;;;;;;;3.85;2.03;;;;;;;;;;4975885;28;20495;-80
2022/06/26 09:03:28;;;;;;;5.00;2.10;;;;;;;;;;4976600;28;20026;-81
2022/06/26 09:05:54;;;;;;;19.30;2.45;;;;;;;;;;4993743;28;20027;-81
2022/06/26 09:08:22;;;;;;;7.00;2.05;;;;;;;;;;4976640;28;20034;-81
2022/06/26 09:10:49;;;;;;;2.88;1.90;;;;;;;;;;4993733;28;20027;-81
2022/06/26 09:13:14;;;;;;;3.22;2.03;;;;;;;;;;4976490;28;20029;-81
2022/06/26 09:15:41;;;;;;;6.05;2.20;;;;;;;;;;4975983;28;20038;-81
2022/06/26 09:18:08;;;;;;;2.20;2.00;;;;;;;;;;4993442;28;20026;-81
2022/06/26 09:20:35;;;;;;;6.07;2.20;;;;;;;;;;4976135;28;20056;-81
2022/06/26 09:23:01;;;;;;;2.60;1.92;;;;;;;;;;4976110;28;20113;-82
2022/06/26 09:25:43;;;;;;;2.78;2.03;;;;;;;;;;4993645;28;20498;-81
2022/06/26 09:28:12;;;;;;;3.85;2.40;;;;;;;;;;4976468;28;20487;-81
2022/06/26 09:30:58;;;;;;;4.13;1.80;;;;;;;;;;4994125;28;20042;-82
2022/06/26 09:33:28;;;;;;;3.55;2.30;;;;;;;;;;4959922;28;20478;-82
2022/06/26 09:35:55;;;;;;;4.03;2.33;;;;;;;;;;4976951;28;20030;-82
2022/06/26 09:38:23;;;;;;;4.68;2.30;;;;;;;;;;4993500;28;20113;-82
2022/06/26 09:40:55;;;;;;;2.85;2.00;;;;;;;;;;4994452;28;20545;-81
2022/06/26 09:43:29;;;;;;;2.75;2.28;;;;;;;;;;4993957;28;20030;-81
2022/06/26 09:45:54;;;;;;;;;;;;;;;;;;4976945;28;20060;-82
2022/06/26 09:48:21;;;;;;;8.50;2.20;;;;;;;;;;4960340;28;19910;-82
2022/06/26 09:50:46;;;;;;;4.18;2.25;;;;;;;;;;4960207;28;20031;-82
2022/06/26 09:53:14;;;;;;;3.08;2.13;;;;;;;;;;4975857;28;20483;-82
2022/06/26 09:55:40;;;;;;;5.57;2.28;;;;;;;;;;4975745;28;20037;-82
2022/06/26 09:58:08;;;;;;;3.08;2.03;;;;;;;;;;4993331;28;20375;-82
2022/06/26 10:00:35;;;;;;;5.78;2.35;;;;;;;;;;4992964;28;20038;-82
2022/06/26 10:08:32;;;;;;;2.95;2.22;;;;;;;;;;4995438;28;20438;-82
2022/06/26 10:10:59;;;;;;;3.83;2.47;;;;;;;;;;4995214;28;20023;-82
2022/06/26 10:13:25;;;;;;;5.07;2.40;;;;;;;;;;4945975;28;20057;-81
2022/06/26 10:15:57;;;;;;;3.95;2.40;;;;;;;;;;4979659;28;20068;-80
2022/06/26 10:18:39;;;;;;;4.13;2.13;;;;;;;;;;4964052;28;20030;-81
2022/06/26 10:21:09;;;;;;;3.03;2.33;;;;;;;;;;4979560;28;20030;-81
2022/06/26 10:23:37;;;;;;;4.78;2.10;;;;;;;;;;4963208;28;20062;-81
2022/06/26 10:26:15;;;;;;;2.97;2.10;;;;;;;;;;4979391;28;20027;-82
2022/06/26 10:28:59;;;;;;;4.70;1.95;;;;;;;;;;4980281;28;20461;-82
2022/06/26 10:31:24;;;;;;;3.30;1.92;;;;;;;;;;4998985;28;20104;-82
2022/06/26 10:33:50;;;;;;;7.38;2.45;;;;;;;;;;4965258;28;20119;-81
2022/06/26 10:36:23;;;;;;;4.47;2.03;;;;;;;;;;4983476;28;20132;-82
2022/06/26 10:38:48;;;;;;;3.65;2.13;;;;;;;;;;4981968;28;20018;-82
2022/06/26 10:44:05;;;;;;;3.22;2.08;;;;;;;;;;4984099;28;20060;-81
2022/06/26 10:46:45;;;;;;;4.10;2.28;;;;;;;;;;4981854;28;20390;-80
2022/06/26 10:49:11;;;;;;;15.70;4.78;;;;;;;;;;4999981;28;20050;-81
2022/06/26 10:51:44;;;;;;;9.05;3.83;;;;;;;;;;4980071;28;20116;-81
2022/06/26 10:54:18;;;;;;;6.88;3.17;;;;;;;;;;4963130;28;20030;-81
2022/06/26 10:56:44;;;;;;;7.05;2.88;;;;;;;;;;4996402;28;20054;-81
2022/06/26 10:59:09;;;;;;;5.03;2.35;;;;;;;;;;4996318;28;20132;-81
2022/06/26 11:01:35;;;;;;;4.35;1.90;;;;;;;;;;4978736;28;20037;-81
2022/06/26 11:04:02;;;;;;;3.30;2.08;;;;;;;;;;4978939;28;20034;-81
2022/06/26 11:06:28;;;;;;;5.28;2.17;;;;;;;;;;4978598;28;20109;-81
2022/06/26 11:08:54;;;;;;;2.83;2.15;;;;;;;;;;4978730;28;20466;-81
2022/06/26 11:11:31;;;;;;;5.22;2.20;;;;;;;;;;4978682;28;20058;-81
2022/06/26 11:14:06;;;;;;;2.95;2.08;;;;;;;;;;4962449;28;20117;-81
2022/06/26 11:16:33;;;;;;;3.13;1.98;;;;;;;;;;4978574;28;20026;-81
2022/06/26 11:19:00;;;;;;;5.38;2.20;;;;;;;;;;4978715;28;20062;-82
2022/06/26 11:21:27;;;;;;;5.22;2.60;;;;;;;;;;4978549;28;20034;-83
2022/06/26 11:23:53;;;;;;;5.82;2.08;;;;;;;;;;4978435;28;20026;-84
2022/06/26 11:26:20;;;;;;;1.75;1.60;;;;;;;;;;4995991;28;20053;-83
2022/06/26 11:28:54;;;;;;;18.73;2.10;;;;;;;;;;4979737;28;20054;-83
2022/06/26 11:31:21;;;;;;;2.78;1.77;;;;;;;;;;5005423;28;20081;-82
2022/06/26 11:33:46;;;;;;;4.40;1.75;;;;;;;;;;4966106;28;20038;-83
2022/06/26 11:36:14;;;;;;;3.35;1.70;;;;;;;;;;4964995;28;20022;-83
2022/06/26 11:38:39;;;;;;;3.65;1.75;;;;;;;;;;4980031;28;20030;-82
2022/06/26 11:41:07;;;;;;;3.28;2.03;;;;;;;;;;4964739;28;20030;-81
2022/06/26 11:43:33;;;;;;;6.28;2.20;;;;;;;;;;4995785;28;20065;-81
2022/06/26 11:46:01;;;;;;;2.65;1.80;;;;;;;;;;4978166;28;20049;-81
2022/06/26 11:48:27;;;;;;;1.92;1.73;;;;;;;;;;4961856;28;20391;-85
2022/06/26 11:50:54;;;;;;;3.60;1.80;;;;;;;;;;4978356;28;20038;-83
2022/06/26 11:53:21;;;;;;;5.40;1.70;;;;;;;;;;4977911;28;20026;-83
2022/06/26 11:55:50;;;;;;;3.80;1.50;;;;;;;;;;4995307;28;20026;-83
2022/06/26 11:58:16;;;;;;;13.77;2.03;;;;;;;;;;4977885;28;20038;-80
2022/06/26 12:00:43;;;;;;;3.70;2.08;;;;;;;;;;4979530;28;20038;-84
2022/06/26 12:03:12;;;;;;;5.22;2.00;;;;;;;;;;4995519;28;20438;-85
2022/06/26 12:05:40;;;;;;;9.55;1.95;;;;;;;;;;4977609;28;20058;-84
2022/06/26 12:08:15;;;;;;;2.50;1.70;;;;;;;;;;4978004;28;20026;-85
2022/06/26 12:10:40;;;;;;;4.25;1.45;;;;;;;;;;4978025;28;20368;-85
2022/06/26 12:13:06;;;;;;;2.58;1.40;;;;;;;;;;4977442;28;20081;-85
2022/06/26 12:15:33;;;;;;;4.68;2.30;;;;;;;;;;4945042;28;20092;-85
2022/06/26 12:18:01;;;;;;;4.20;2.35;;;;;;;;;;4977346;28;20030;-84
2022/06/26 12:20:34;;;;;;;6.45;2.80;;;;;;;;;;4977187;28;20395;-86
2022/06/26 12:23:00;;;;;;;8.25;4.45;;;;;;;;;;4977115;28;20510;-85
2022/06/26 12:25:33;;;;;;;7.32;4.55;;;;;;;;;;4977462;28;20030;-86
2022/06/26 12:28:00;;;;;;;6.70;3.72;;;;;;;;;;4977075;28;20041;-85
2022/06/26 12:30:33;;;;;;;5.68;3.78;;;;;;;;;;4994290;28;20092;-85
2022/06/26 12:33:00;;;;;;;10.88;3.00;;;;;;;;;;4977320;28;20026;-84
2022/06/26 12:35:28;;;;;;;5.18;3.10;;;;;;;;;;4994198;28;20031;-84
2022/06/26 12:37:55;;;;;;;5.07;2.42;;;;;;;;;;4976500;28;20029;-85
2022/06/26 12:40:20;;;;;;;4.45;2.22;;;;;;;;;;4977417;28;20026;-85
2022/06/26 12:42:46;;;;;;;3.10;2.10;;;;;;;;;;4994837;28;20065;-86
2022/06/26 12:45:12;;;;;;;4.55;2.40;;;;;;;;;;4977386;28;20026;-86
2022/06/26 12:47:38;;;;;;;3.30;2.00;;;;;;;;;;4979776;28;20026;-87
2022/06/26 12:50:04;;;;;;;2.78;1.80;;;;;;;;;;4963258;28;20145;-85
2022/06/26 12:52:29;;;;;;;2.70;1.60;;;;;;;;;;4994699;28;20117;-85
2022/06/26 12:55:03;;;;;;;4.07;1.63;;;;;;;;;;4977830;28;20096;-84
2022/06/26 12:57:31;;;;;;;3.42;1.65;;;;;;;;;;4970910;28;20426;-83
2022/06/26 12:59:57;;;;;;;3.00;1.63;;;;;;;;;;4997477;28;20068;-86
2022/06/26 13:02:22;;;;;;;6.28;1.88;;;;;;;;;;4977066;28;20030;-83
2022/06/26 13:04:48;;;;;;;3.63;1.88;;;;;;;;;;4995063;28;20036;-83
2022/06/26 13:07:13;;;;;;;4.35;1.85;;;;;;;;;;4960521;28;20015;-84
2022/06/26 13:09:39;;;;;;;4.43;1.73;;;;;;;;;;4994123;28;20057;-84
2022/06/26 13:12:05;;;;;;;4.25;1.90;;;;;;;;;;4976557;28;20054;-84
2022/06/26 13:14:30;;;;;;;3.42;1.95;;;;;;;;;;4976416;28;20057;-84
2022/06/26 13:16:56;;;;;;;2.70;1.80;;;;;;;;;;4944242;28;20441;-83
2022/06/26 13:19:22;;;;;;;6.55;1.98;;;;;;;;;;4976839;28;20041;-86
2022/06/26 13:21:48;;;;;;;3.70;1.90;;;;;;;;;;4977921;28;20034;-83
2022/06/26 13:24:14;;;;;;;3.05;1.63;;;;;;;;;;4994376;28;20039;-84
2022/06/26 13:26:40;;;;;;;4.95;2.00;;;;;;;;;;4976717;28;20061;-82
2022/06/26 13:29:06;;;;;;;7.35;1.80;;;;;;;;;;4976883;28;20077;-84
2022/06/26 13:31:32;;;;;;;3.55;2.00;;;;;;;;;;4993173;28;20030;-84
2022/06/26 13:33:57;;;;;;;4.22;1.75;;;;;;;;;;4961483;28;20038;-86
2022/06/26 13:36:22;;;;;;;5.47;1.65;;;;;;;;;;4981459;28;20035;-86
2022/06/26 13:38:49;;;;;;;3.85;1.70;;;;;;;;;;4977593;28;20093;-85
2022/06/26 13:41:14;;;;;;;4.93;1.80;;;;;;;;;;4962196;28;20387;-85
2022/06/26 13:43:40;;;;;;;4.30;1.50;;;;;;;;;;4961923;28;20027;-85
2022/06/26 13:46:05;;;;;;;6.63;1.75;;;;;;;;;;4961630;28;20033;-85
2022/06/26 13:48:32;;;;;;;4.40;1.83;;;;;;;;;;4961148;28;20062;-85
2022/06/26 13:50:57;;;;;;;15.63;1.50;;;;;;;;;;4979831;28;20039;-84
2022/06/26 13:53:23;;;;;;;2.65;1.40;;;;;;;;;;4996828;28;20026;-85
2022/06/26 13:55:50;;;;;;;4.40;1.60;;;;;;;;;;4994622;28;20038;-84
2022/06/26 13:58:16;;;;;;;2.95;1.50;;;;;;;;;;4962427;28;20041;-85
2022/06/26 14:00:42;;;;;;;4.47;1.40;;;;;;;;;;4995013;28;20493;-85
2022/06/26 14:03:07;;;;;;;4.57;1.50;;;;;;;;;;4961333;28;20113;-85
2022/06/26 14:05:32;;;;;;;2.65;1.35;;;;;;;;;;4994722;28;20064;-85
2022/06/26 14:07:58;;;;;;;2.15;1.48;;;;;;;;;;4995223;28;20061;-85
2022/06/26 14:10:23;;;;;;;3.08;1.90;;;;;;;;;;4980183;28;20423;-85
2022/06/26 14:12:49;;;;;;;6.32;1.65;;;;;;;;;;4983302;28;20021;-84
2022/06/26 14:15:14;;;;;;;8.95;1.73;;;;;;;;;;4962548;28;20042;-85
2022/06/26 14:17:40;;;;;;;3.92;1.45;;;;;;;;;;4994673;28;20427;-85
2022/06/26 14:20:07;;;;;;;6.07;1.58;;;;;;;;;;4996682;28;20479;-85
2022/06/26 14:28:00;;;;;;;5.80;1.60;;;;;;;;;;4967012;28;20411;-82
2022/06/26 14:30:26;;;;;;;3.70;1.30;;;;;;;;;;4961573;28;20039;-84
2022/06/26 14:32:51;;;;;;;7.53;1.60;;;;;;;;;;4962808;28;20026;-85
2022/06/26 14:35:16;;;;;;;8.07;2.00;;;;;;;;;;4977546;28;20034;-85
2022/06/26 14:37:42;;;;;;;2.25;1.58;;;;;;;;;;4998000;28;20037;-85
2022/06/26 14:40:08;;;;;;;2.92;1.63;;;;;;;;;;4960867;28;20027;-86
2022/06/26 14:42:33;;;;;;;6.57;1.80;;;;;;;;;;4961519;28;20034;-85
2022/06/26 14:44:59;;;;;;;4.90;1.67;;;;;;;;;;4959990;28;20398;-86
2022/06/26 14:47:24;;;;;;;4.20;1.80;;;;;;;;;;4960326;28;20030;-86
2022/06/26 14:49:50;;;;;;;1.98;1.50;;;;;;;;;;4976770;28;20030;-85
2022/06/26 14:52:15;;;;;;;3.03;1.60;;;;;;;;;;4976319;28;20069;-85
2022/06/26 14:54:40;;;;;;;6.80;2.00;;;;;;;;;;4976556;28;20034;-85
2022/06/26 14:57:06;;;;;;;4.28;1.40;;;;;;;;;;4976370;28;20038;-86